createdAt,value
2018-08-20T00:01:50.648Z,83.70
2018-08-20T00:04:19.120Z,83.60
2018-08-20T00:06:56.885Z,83.70
2018-08-20T00:09:36.389Z,83.30
2018-08-20T00:12:06.400Z,82.90
2018-08-20T00:14:34.857Z,82.60
2018-08-20T00:17:03.385Z,82.00
2018-08-20T00:19:31.812Z,81.60
2018-08-20T00:22:00.278Z,81.10
2018-08-20T00:24:28.793Z,80.70
2018-08-20T00:26:59.486Z,80.20
2018-08-20T00:29:27.933Z,79.90
2018-08-20T00:31:56.389Z,79.60
2018-08-20T00:34:24.806Z,79.30
2018-08-20T00:36:53.532Z,79.00
2018-08-20T00:39:21.942Z,78.70
2018-08-20T00:41:50.403Z,78.50
2018-08-20T00:44:18.836Z,78.30
2018-08-20T00:46:47.328Z,78.20
2018-08-20T00:49:16.560Z,78.10
2018-08-20T00:51:45.303Z,78.00
2018-08-20T00:54:13.736Z,77.90
2018-08-20T00:56:42.209Z,77.80
2018-08-20T00:59:10.668Z,77.90
2018-08-20T01:01:39.181Z,78.00
2018-08-20T01:04:07.709Z,77.70
2018-08-20T01:06:36.142Z,77.70
2018-08-20T01:09:06.528Z,77.50
2018-08-20T01:11:35.047Z,77.50
2018-08-20T01:14:03.833Z,77.50
2018-08-20T01:16:32.324Z,77.50
2018-08-20T01:19:00.807Z,77.30
2018-08-20T01:21:29.295Z,77.50
2018-08-20T01:23:57.787Z,77.50
2018-08-20T01:26:26.251Z,77.50
2018-08-20T01:28:54.762Z,77.50
2018-08-20T01:31:23.194Z,77.70
2018-08-20T01:33:51.698Z,78.00
2018-08-20T01:36:20.149Z,78.00
2018-08-20T01:38:48.893Z,78.20
2018-08-20T01:41:17.316Z,78.50
2018-08-20T01:43:45.736Z,79.20
2018-08-20T01:46:14.182Z,79.20
2018-08-20T01:48:42.583Z,79.50
2018-08-20T01:51:11.070Z,80.10
2018-08-20T01:53:39.557Z,80.30
2018-08-20T01:56:08.360Z,80.70
2018-08-20T01:58:36.841Z,81.10
2018-08-20T02:01:05.291Z,82.10
2018-08-20T02:03:33.764Z,82.30
2018-08-20T02:06:02.226Z,82.80
2018-08-20T02:08:30.644Z,83.00
2018-08-20T02:10:59.126Z,83.70
2018-08-20T02:13:27.526Z,83.90
2018-08-20T02:15:55.976Z,84.70
2018-08-20T02:18:24.506Z,84.80
2018-08-20T02:20:52.976Z,85.00
2018-08-20T02:23:21.422Z,85.20
2018-08-20T02:25:49.873Z,85.30
2018-08-20T02:28:18.370Z,85.80
2018-08-20T02:30:46.809Z,85.90
2018-08-20T02:33:15.265Z,86.20
2018-08-20T02:35:43.698Z,86.30
2018-08-20T02:38:12.192Z,86.60
2018-08-20T02:40:40.665Z,86.90
2018-08-20T02:43:09.148Z,86.80
2018-08-20T02:45:37.580Z,86.80
2018-08-20T02:48:06.872Z,87.10
2018-08-20T02:50:35.310Z,87.40
2018-08-20T02:53:03.884Z,87.70
2018-08-20T02:55:32.330Z,88.60
2018-08-20T02:58:00.747Z,89.20
2018-08-20T03:00:29.512Z,89.30
2018-08-20T03:03:03.626Z,89.60
2018-08-20T03:05:33.020Z,89.70
2018-08-20T03:08:01.557Z,89.80
2018-08-20T03:10:30.020Z,90.00
2018-08-20T03:12:58.620Z,90.20
2018-08-20T03:15:27.103Z,90.30
2018-08-20T03:17:55.741Z,90.10
2018-08-20T03:20:24.188Z,90.10
2018-08-20T03:22:52.640Z,90.20
2018-08-20T03:25:21.124Z,90.40
2018-08-20T03:27:49.576Z,90.50
2018-08-20T03:30:18.274Z,90.40
2018-08-20T03:32:46.711Z,90.30
2018-08-20T03:35:15.739Z,90.00
2018-08-20T03:37:44.188Z,90.00
2018-08-20T03:40:13.384Z,89.80
2018-08-20T03:42:42.343Z,89.60
2018-08-20T03:45:11.259Z,89.60
2018-08-20T03:47:39.752Z,89.80
2018-08-20T03:50:10.608Z,89.80
2018-08-20T03:52:39.114Z,89.70
2018-08-20T03:55:07.584Z,89.60
2018-08-20T03:57:36.437Z,89.50
2018-08-20T04:13:09.960Z,89.60
2018-08-20T04:15:38.351Z,89.60
2018-08-20T04:18:06.820Z,91.20
2018-08-20T04:20:35.257Z,91.40
2018-08-20T04:23:03.712Z,91.50
2018-08-20T04:25:32.142Z,91.60
2018-08-20T04:28:00.602Z,91.60
2018-08-20T04:30:29.060Z,91.50
2018-08-20T04:32:57.482Z,91.30
2018-08-20T04:35:25.891Z,91.20
2018-08-20T04:37:54.320Z,91.10
2018-08-20T04:40:22.787Z,91.00
2018-08-20T04:42:51.225Z,91.00
2018-08-20T04:45:20.020Z,90.90
2018-08-20T04:47:48.458Z,91.10
2018-08-20T04:50:17.110Z,91.10
2018-08-20T04:52:45.329Z,91.10
2018-08-20T04:55:13.728Z,91.10
2018-08-20T04:57:42.196Z,91.20
2018-08-20T05:00:11.647Z,91.20
2018-08-20T05:02:40.090Z,91.20
2018-08-20T05:05:08.592Z,91.10
2018-08-20T05:07:37.021Z,91.00
2018-08-20T05:10:05.718Z,91.00
2018-08-20T05:12:34.171Z,90.80
2018-08-20T05:15:02.612Z,90.70
2018-08-20T05:17:31.080Z,90.60
2018-08-20T05:19:59.516Z,90.50
2018-08-20T05:22:27.962Z,90.50
2018-08-20T05:24:56.424Z,90.40
2018-08-20T05:27:24.897Z,90.30
2018-08-20T05:29:53.634Z,90.20
2018-08-20T05:32:22.069Z,90.10
2018-08-20T05:34:50.521Z,90.00
2018-08-20T05:37:18.993Z,89.80
2018-08-20T05:39:47.465Z,89.30
2018-08-20T05:42:15.933Z,89.30
2018-08-20T05:44:44.941Z,88.90
2018-08-20T05:47:13.362Z,88.70
2018-08-20T05:49:41.847Z,88.50
2018-08-20T05:52:12.426Z,88.20
2018-08-20T05:54:40.876Z,88.40
2018-08-20T05:57:09.334Z,88.50
2018-08-20T05:59:37.757Z,88.40
2018-08-20T06:02:06.208Z,88.30
2018-08-20T06:04:34.631Z,88.50
2018-08-20T06:07:03.470Z,88.50
2018-08-20T06:09:31.921Z,88.60
2018-08-20T06:12:00.382Z,88.60
2018-08-20T06:14:28.877Z,88.70
2018-08-20T06:16:57.327Z,88.70
2018-08-20T06:19:25.729Z,88.60
2018-08-20T06:21:54.248Z,88.50
2018-08-20T06:24:22.685Z,88.50
2018-08-20T06:26:51.160Z,88.20
2018-08-20T06:29:19.578Z,88.20
2018-08-20T06:31:48.081Z,87.80
2018-08-20T06:34:16.481Z,87.50
2018-08-20T06:36:44.920Z,87.50
2018-08-20T06:39:13.715Z,87.50
2018-08-20T06:41:42.247Z,87.80
2018-08-20T06:44:10.677Z,87.80
2018-08-20T06:46:39.133Z,87.50
2018-08-20T06:49:08.818Z,87.40
2018-08-20T06:51:37.503Z,87.40
2018-08-20T06:54:06.233Z,87.80
2018-08-20T06:56:34.704Z,88.00
2018-08-20T06:59:03.280Z,88.00
2018-08-20T07:01:31.767Z,88.30
2018-08-20T07:04:00.279Z,88.20
2018-08-20T07:06:28.817Z,88.10
2018-08-20T07:08:57.182Z,88.20
2018-08-20T07:11:25.983Z,88.30
2018-08-20T07:13:54.424Z,88.20
2018-08-20T07:16:22.953Z,88.40
2018-08-20T07:18:51.465Z,87.80
2018-08-20T07:21:20.221Z,87.70
2018-08-20T07:23:48.681Z,87.80
2018-08-20T07:26:23.955Z,88.00
2018-08-20T07:28:52.430Z,88.20
2018-08-20T07:31:20.887Z,88.50
2018-08-20T07:33:49.384Z,88.50
2018-08-20T07:36:17.894Z,88.20
2018-08-20T07:38:46.349Z,87.50
2018-08-20T07:41:14.963Z,87.00
2018-08-20T07:43:43.587Z,86.60
2018-08-20T07:46:12.161Z,86.10
2018-08-20T07:48:40.621Z,85.60
2018-08-20T07:51:09.128Z,85.30
2018-08-20T07:53:37.716Z,84.80
2018-08-20T07:56:06.277Z,84.60
2018-08-20T07:58:34.772Z,84.80
2018-08-20T08:01:03.233Z,84.70
2018-08-20T08:03:32.468Z,84.50
2018-08-20T08:06:03.147Z,84.20
2018-08-20T08:08:31.836Z,84.10
2018-08-20T08:11:00.453Z,84.00
2018-08-20T08:13:28.913Z,83.90
2018-08-20T08:15:57.409Z,83.90
2018-08-20T08:18:25.877Z,83.90
2018-08-20T08:20:54.393Z,84.00
2018-08-20T08:23:22.951Z,84.80
2018-08-20T08:25:51.421Z,86.90
2018-08-20T08:28:19.950Z,89.00
2018-08-20T08:30:48.617Z,90.50
2018-08-20T08:33:17.065Z,91.00
2018-08-20T08:35:45.487Z,91.60
2018-08-20T08:51:14.457Z,92.00
2018-08-20T08:53:42.987Z,92.40
2018-08-20T08:56:11.462Z,96.10
2018-08-20T08:58:39.958Z,96.20
2018-08-20T09:01:08.415Z,96.20
2018-08-20T09:03:36.927Z,96.00
2018-08-20T09:06:06.070Z,96.10
2018-08-20T09:08:34.565Z,96.10
2018-08-20T09:11:03.017Z,96.30
2018-08-20T09:13:31.511Z,96.20
2018-08-20T09:15:59.993Z,96.50
2018-08-20T09:18:28.465Z,96.40
2018-08-20T09:21:01.905Z,96.10
2018-08-20T09:23:30.416Z,96.30
2018-08-20T09:25:58.914Z,96.40
2018-08-20T09:28:27.426Z,96.20
2018-08-20T09:30:55.975Z,96.10
2018-08-20T09:33:24.430Z,96.00
2018-08-20T09:35:52.912Z,95.80
2018-08-20T09:38:21.544Z,95.70
2018-08-20T09:40:50.727Z,95.60
2018-08-20T09:43:19.243Z,95.50
2018-08-20T09:45:48.128Z,95.40
2018-08-20T09:48:16.621Z,95.30
2018-08-20T09:50:45.498Z,95.40
2018-08-20T09:53:14.014Z,95.30
2018-08-20T09:55:42.465Z,95.10
2018-08-20T09:58:11.012Z,95.00
2018-08-20T10:00:39.655Z,94.80
2018-08-20T10:03:09.355Z,94.70
2018-08-20T10:05:37.889Z,95.00
2018-08-20T10:08:06.487Z,95.20
2018-08-20T10:10:35.869Z,95.00
2018-08-20T10:13:04.633Z,94.60
2018-08-20T10:15:33.440Z,94.70
2018-08-20T10:18:02.561Z,94.50
2018-08-20T10:20:31.387Z,94.30
2018-08-20T10:22:59.905Z,94.30
2018-08-20T10:25:28.372Z,93.90
2018-08-20T10:27:57.205Z,93.70
2018-08-20T10:30:25.743Z,93.50
2018-08-20T10:32:54.189Z,93.40
2018-08-20T10:35:22.789Z,93.50
2018-08-20T10:37:51.760Z,93.40
2018-08-20T10:40:20.895Z,93.10
2018-08-20T10:42:50.029Z,93.20
2018-08-20T10:45:20.325Z,93.20
2018-08-20T10:47:50.467Z,93.10
2018-08-20T10:50:20.435Z,92.90
2018-08-20T10:52:50.713Z,92.70
2018-08-20T10:55:19.525Z,92.60
2018-08-20T10:57:48.515Z,91.40
2018-08-20T11:00:17.674Z,90.70
2018-08-20T11:02:46.551Z,90.00
2018-08-20T11:05:17.613Z,89.60
2018-08-20T11:07:46.825Z,89.60
2018-08-20T11:10:15.747Z,89.20
2018-08-20T11:12:44.306Z,89.30
2018-08-20T11:15:13.467Z,89.10
2018-08-20T11:17:42.832Z,89.00
2018-08-20T11:20:14.354Z,88.70
2018-08-20T11:22:43.250Z,88.70
2018-08-20T11:25:13.329Z,88.20
2018-08-20T11:27:42.221Z,87.40
2018-08-20T11:30:12.850Z,86.50
2018-08-20T11:32:42.038Z,85.40
2018-08-20T11:35:12.061Z,83.80
2018-08-20T11:37:40.905Z,82.40
2018-08-20T11:40:10.190Z,80.20
2018-08-20T11:42:38.876Z,78.80
2018-08-20T11:45:09.981Z,75.70
2018-08-20T11:47:38.654Z,74.70
2018-08-20T11:50:07.447Z,74.10
2018-08-20T11:52:36.366Z,71.00
2018-08-20T11:55:05.230Z,68.80
2018-08-20T11:57:33.690Z,66.90
2018-08-20T12:00:02.421Z,64.60
2018-08-20T12:02:31.336Z,63.50
2018-08-20T12:05:00.344Z,60.40
2018-08-20T12:07:29.106Z,59.30
2018-08-20T12:09:57.966Z,58.50
2018-08-20T12:12:27.091Z,57.40
2018-08-20T12:14:55.598Z,56.70
2018-08-20T12:17:24.474Z,56.30
2018-08-20T12:19:53.400Z,55.20
2018-08-20T12:22:23.114Z,53.90
2018-08-20T12:24:51.703Z,52.80
2018-08-20T12:27:20.536Z,53.30
2018-08-20T12:29:49.419Z,52.50
2018-08-20T12:32:17.988Z,52.20
2018-08-20T12:34:46.462Z,52.00
2018-08-20T12:37:14.974Z,51.60
2018-08-20T12:39:43.530Z,50.90
2018-08-20T12:42:18.502Z,51.30
2018-08-20T12:44:47.452Z,52.10
2018-08-20T12:47:16.317Z,52.10
2018-08-20T12:49:46.265Z,52.20
2018-08-20T12:52:15.137Z,53.00
2018-08-20T12:54:44.000Z,52.70
2018-08-20T12:57:12.874Z,52.70
2018-08-20T12:59:42.023Z,52.90
2018-08-20T13:02:11.527Z,53.20
2018-08-20T13:04:40.724Z,53.20
2018-08-20T13:07:09.639Z,52.70
2018-08-20T13:09:38.241Z,52.70
2018-08-20T13:12:06.868Z,52.30
2018-08-20T13:14:36.451Z,51.90
2018-08-20T13:17:05.553Z,52.10
2018-08-20T13:19:34.346Z,51.90
2018-08-20T13:22:03.612Z,51.00
2018-08-20T13:24:32.754Z,50.60
2018-08-20T13:27:01.909Z,50.50
2018-08-20T13:29:31.298Z,50.70
2018-08-20T13:32:00.311Z,50.60
2018-08-20T13:34:29.294Z,50.60
2018-08-20T13:36:58.748Z,50.80
2018-08-20T13:39:27.598Z,50.40
2018-08-20T13:41:56.204Z,50.50
2018-08-20T13:44:24.933Z,50.50
2018-08-20T13:46:53.988Z,50.10
2018-08-20T13:49:22.983Z,50.30
2018-08-20T13:51:53.299Z,50.40
2018-08-20T13:54:21.790Z,51.10
2018-08-20T13:56:50.655Z,52.10
2018-08-20T13:59:19.790Z,52.90
2018-08-20T14:01:48.818Z,53.90
2018-08-20T14:04:17.669Z,55.50
2018-08-20T14:06:46.884Z,57.40
2018-08-20T14:09:16.540Z,59.10
2018-08-20T14:11:45.694Z,60.40
2018-08-20T14:14:14.223Z,60.80
2018-08-20T14:16:42.902Z,61.60
2018-08-20T14:19:11.899Z,62.20
2018-08-20T14:21:41.053Z,63.40
2018-08-20T14:24:10.440Z,63.30
2018-08-20T14:26:38.962Z,63.10
2018-08-20T14:29:08.633Z,62.40
2018-08-20T14:31:37.218Z,63.00
2018-08-20T14:34:06.045Z,63.10
2018-08-20T14:36:34.896Z,63.00
2018-08-20T14:39:04.286Z,63.80
2018-08-20T14:41:32.999Z,63.90
2018-08-20T14:44:01.477Z,64.70
2018-08-20T14:46:30.168Z,65.10
2018-08-20T14:48:58.722Z,65.20
2018-08-20T14:51:27.232Z,64.60
2018-08-20T14:53:55.792Z,64.00
2018-08-20T14:56:24.342Z,63.80
2018-08-20T14:58:52.972Z,63.60
2018-08-20T15:01:21.509Z,63.50
2018-08-20T15:03:49.941Z,64.10
2018-08-20T15:06:18.423Z,64.20
2018-08-20T15:08:46.868Z,64.90
2018-08-20T15:11:15.341Z,65.40
2018-08-20T15:13:43.834Z,65.20
2018-08-20T15:16:12.488Z,65.50
2018-08-20T15:18:41.258Z,66.00
2018-08-20T15:21:10.390Z,66.20
2018-08-20T15:23:38.816Z,66.10
2018-08-20T15:26:07.377Z,66.50
2018-08-20T15:28:35.983Z,66.80
2018-08-20T15:31:04.839Z,68.30
2018-08-20T15:33:33.709Z,67.00
2018-08-20T15:36:02.212Z,67.30
2018-08-20T15:38:30.738Z,67.20
2018-08-20T15:40:59.291Z,67.00
2018-08-20T15:43:27.830Z,66.80
2018-08-20T15:45:56.361Z,65.90
2018-08-20T15:48:25.792Z,65.60
2018-08-20T15:50:54.286Z,65.40
2018-08-20T15:53:22.764Z,65.20
2018-08-20T15:55:51.190Z,64.90
2018-08-20T15:58:19.865Z,65.10
2018-08-20T16:00:48.392Z,65.00
2018-08-20T16:03:16.889Z,65.00
2018-08-20T16:05:45.486Z,65.20
2018-08-20T16:08:14.797Z,64.80
2018-08-20T16:10:46.152Z,64.90
2018-08-20T16:13:14.716Z,65.00
2018-08-20T16:15:43.193Z,64.90
2018-08-20T16:18:11.726Z,64.80
2018-08-20T16:20:40.465Z,64.50
2018-08-20T16:23:09.102Z,63.50
2018-08-20T16:25:38.119Z,63.40
2018-08-20T16:28:06.859Z,62.50
2018-08-20T16:30:35.385Z,62.90
2018-08-20T16:33:03.878Z,62.60
2018-08-20T16:35:32.425Z,62.60
2018-08-20T16:38:01.032Z,63.00
2018-08-20T16:40:29.534Z,63.00
2018-08-20T16:42:58.077Z,63.10
2018-08-20T16:45:26.619Z,63.20
2018-08-20T16:47:55.070Z,63.60
2018-08-20T16:50:23.591Z,63.60
2018-08-20T16:52:52.083Z,63.80
2018-08-20T16:55:20.627Z,63.90
2018-08-20T16:57:49.172Z,64.10
2018-08-20T17:00:17.745Z,64.30
2018-08-20T17:02:46.404Z,64.70
2018-08-20T17:05:15.000Z,65.00
2018-08-20T17:07:43.535Z,65.20
2018-08-20T17:10:13.260Z,65.80
2018-08-20T17:12:42.231Z,66.30
2018-08-20T17:15:17.118Z,66.40
2018-08-20T17:17:45.598Z,65.80
2018-08-20T17:20:14.086Z,65.40
2018-08-20T17:22:43.172Z,65.40
2018-08-20T17:25:11.652Z,65.60
2018-08-20T17:27:40.274Z,65.80
2018-08-20T17:30:09.561Z,65.90
2018-08-20T17:32:38.131Z,65.60
2018-08-20T17:35:08.084Z,65.60
2018-08-20T17:37:36.569Z,65.50
2018-08-20T17:40:09.057Z,65.50
2018-08-20T17:42:37.713Z,65.50
2018-08-20T17:45:08.010Z,65.40
2018-08-20T17:47:39.668Z,65.80
2018-08-20T17:50:22.860Z,65.10
2018-08-20T17:52:51.320Z,65.20
2018-08-20T17:55:19.823Z,65.50
2018-08-20T17:57:48.327Z,65.80
2018-08-20T18:00:53.363Z,65.80
2018-08-20T18:03:27.545Z,65.90
2018-08-20T18:05:57.513Z,65.90
2018-08-20T18:08:27.216Z,66.10
2018-08-20T18:10:56.109Z,65.80
2018-08-20T18:13:38.427Z,65.80
2018-08-20T18:16:08.221Z,65.80
2018-08-20T18:18:37.452Z,65.60
2018-08-20T18:21:05.985Z,65.40
2018-08-20T18:23:35.566Z,65.40
2018-08-20T18:26:04.140Z,65.40
2018-08-20T18:28:41.724Z,65.40
2018-08-20T18:31:27.207Z,65.40
2018-08-20T18:33:55.909Z,65.70
2018-08-20T18:36:27.215Z,65.50
2018-08-20T18:38:59.865Z,65.70
2018-08-20T18:42:21.172Z,66.00
2018-08-20T18:44:50.412Z,66.00
2018-08-20T18:47:19.262Z,66.20
2018-08-20T18:49:53.375Z,66.60
2018-08-20T18:52:22.884Z,66.50
2018-08-20T18:54:54.514Z,66.90
2018-08-20T18:57:26.585Z,67.00
2018-08-20T18:59:57.538Z,67.20
2018-08-20T19:02:49.541Z,67.60
2018-08-20T19:05:18.857Z,67.70
2018-08-20T19:07:47.576Z,67.70
2018-08-20T19:10:29.241Z,68.00
2018-08-20T19:12:58.032Z,68.20
2018-08-20T19:15:38.481Z,68.30
2018-08-20T19:18:08.613Z,68.30
2018-08-20T19:20:37.499Z,68.60
2018-08-20T19:23:06.090Z,69.00
2018-08-20T19:25:34.654Z,69.80
2018-08-20T19:28:08.277Z,70.20
2018-08-20T19:30:37.162Z,69.80
2018-08-20T19:33:10.044Z,70.20
2018-08-20T19:35:38.636Z,70.40
2018-08-20T19:38:07.176Z,71.30
2018-08-20T19:40:35.627Z,71.00
2018-08-20T19:43:04.150Z,70.90
2018-08-20T19:45:37.146Z,71.10
2018-08-20T19:48:05.735Z,71.40
2018-08-20T19:50:34.353Z,71.60
2018-08-20T19:53:09.595Z,71.80
2018-08-20T19:55:38.135Z,72.00
2018-08-20T19:58:06.712Z,72.20
2018-08-20T20:00:35.213Z,72.50
2018-08-20T20:03:03.829Z,72.50
2018-08-20T20:05:32.448Z,72.80
2018-08-20T20:08:04.727Z,73.00
2018-08-20T20:10:34.029Z,73.30
2018-08-20T20:13:02.509Z,73.40
2018-08-20T20:15:33.965Z,73.60
2018-08-20T20:18:02.561Z,73.90
2018-08-20T20:20:31.137Z,74.20
2018-08-20T20:22:59.663Z,74.60
2018-08-20T20:25:28.775Z,74.90
2018-08-20T20:27:57.340Z,75.00
2018-08-20T20:30:25.865Z,75.10
2018-08-20T20:32:54.346Z,75.60
2018-08-20T20:35:22.807Z,75.80
2018-08-20T20:37:51.271Z,76.00
2018-08-20T20:40:19.804Z,76.60
2018-08-20T20:42:48.317Z,76.90
2018-08-20T20:45:16.868Z,77.10
2018-08-20T20:47:45.392Z,77.50
2018-08-20T20:50:13.863Z,77.70
2018-08-20T20:52:42.830Z,77.90
2018-08-20T20:55:11.325Z,78.30
2018-08-20T20:57:39.821Z,78.70
2018-08-20T21:00:09.214Z,78.90
2018-08-20T21:02:38.541Z,79.30
2018-08-20T21:05:09.819Z,79.40
2018-08-20T21:07:40.824Z,80.30
2018-08-20T21:10:09.722Z,79.90
2018-08-20T21:12:38.255Z,80.00
2018-08-20T21:15:08.139Z,80.10
2018-08-20T21:17:37.539Z,80.50
2018-08-20T21:20:06.655Z,81.10
2018-08-20T21:22:37.799Z,81.40
2018-08-20T21:25:07.711Z,81.70
2018-08-20T21:27:43.649Z,81.70
2018-08-20T21:30:12.290Z,82.10
2018-08-20T21:32:40.987Z,82.30
2018-08-20T21:35:09.539Z,82.40
2018-08-20T21:37:38.100Z,82.60
2018-08-20T21:40:06.738Z,82.70
2018-08-20T21:42:38.347Z,82.90
2018-08-20T21:45:06.936Z,83.10
2018-08-20T21:47:35.954Z,83.20
2018-08-20T21:50:05.540Z,83.10
2018-08-20T21:52:34.303Z,83.10
2018-08-20T21:55:03.186Z,83.00
2018-08-20T21:57:31.792Z,83.30
2018-08-20T22:00:19.122Z,83.10
2018-08-20T22:02:50.445Z,83.30
2018-08-20T22:05:19.551Z,83.40
2018-08-20T22:07:48.698Z,83.90
2018-08-20T22:10:17.249Z,84.30
2018-08-20T22:12:45.836Z,84.60
2018-08-20T22:15:14.387Z,84.80
2018-08-20T22:17:43.409Z,84.70
2018-08-20T22:20:12.624Z,85.20
2018-08-20T22:22:41.177Z,85.60
2018-08-20T22:25:14.352Z,86.10
2018-08-20T22:27:48.535Z,86.40
2018-08-20T22:30:17.472Z,86.70
2018-08-20T22:32:46.324Z,86.90
2018-08-20T22:35:20.273Z,87.00
2018-08-20T22:37:51.422Z,87.10
2018-08-20T22:40:20.877Z,87.10
2018-08-20T22:42:55.029Z,87.20
2018-08-20T22:45:23.621Z,87.70
2018-08-20T22:47:52.554Z,87.90
2018-08-20T22:50:21.311Z,88.60
2018-08-20T22:52:51.098Z,88.10
2018-08-20T22:55:21.704Z,88.60
2018-08-20T22:58:09.960Z,88.90
2018-08-20T23:00:38.541Z,89.10
2018-08-20T23:03:07.156Z,89.40
2018-08-20T23:05:36.061Z,89.70
2018-08-20T23:08:10.005Z,90.00
2018-08-20T23:10:42.069Z,89.70
2018-08-20T23:13:10.636Z,89.60
2018-08-20T23:15:39.106Z,89.80
2018-08-20T23:18:07.622Z,90.00
2018-08-20T23:20:36.105Z,90.00
2018-08-20T23:23:04.759Z,90.00
2018-08-20T23:25:33.266Z,90.00
2018-08-20T23:28:01.826Z,90.00
2018-08-20T23:30:30.280Z,90.30
2018-08-20T23:32:59.090Z,90.00
2018-08-20T23:35:27.534Z,90.00
2018-08-20T23:37:55.961Z,89.90
2018-08-20T23:40:24.400Z,89.80
2018-08-20T23:42:53.288Z,89.70
2018-08-20T23:45:21.724Z,90.00
2018-08-20T23:47:50.183Z,90.00
2018-08-20T23:50:18.697Z,89.80
2018-08-20T23:52:47.157Z,89.60
2018-08-20T23:55:15.648Z,90.00
2018-08-20T23:57:44.145Z,89.90
